Дата Пункты Температура Давл., мм. Влажн., % Ветер Погодные явления
Воздуха Воды Направл. Скорость
05.09.19 06:00 Одесса 15.0 22.0 758 79 Пн-З 1 06 ГОДИН
05.09.19 03:00 Одесса 15.0 22.0 759 83 Пн 0 03 ГОДИНИ
04.09.19 09:00 Одесса 19.0 22.0 759 67 Пн-З 2 21 ГОДИНУ
04.09.19 06:00 Одесса 20.0 22.0 758 60 Пн-З 1 18 ГОДИН
04.09.19 03:00 Одесса 19.0 22.0 759 70 Пн-З 3 15 ГОДИН
04.09.19 12:00 Одесса 17.0 22.0 759 85 Пн-З 3 12 ГОДИН
04.09.19 09:00 Одесса 20.0 22.0 758 72 Пн-З 2 09 ГОДИН
04.09.19 06:00 Одесса 21.0 23.0 758 76 Пн-З 2 06 ГОДИН
04.09.19 03:00 Одесса 22.0 23.0 757 64 Пн-З 2 03 ГОДИНИ
03.09.19 09:00 Одесса 26.0 23.0 756 44 Пн-З 2 21 ГОДИНУ
03.09.19 06:00 Одесса 25.0 23.0 756 71 Пд-З 2 18 ГОДИН
03.09.19 03:00 Одесса 28.0 23.0 757 57 Пд 3 15 ГОДИН
03.09.19 12:00 Одесса 27.0 23.0 758 47 Пд-С 2 12 ГОДИН
03.09.19 09:00 Одесса 26.0 23.0 758 40 З 1 09 ГОДИН
03.09.19 09:00 Одесса 26.0 23.0 758 40 З 1 09 ГОДИН
02.09.19 09:00 Одесса 26.0 23.0 757 38 Пд-З 2 21 ГОДИНУ
02.09.19 06:00 Одесса 27.0 23.0 757 43 Пд-З 2 18 ГОДИН
02.09.19 03:00 Одесса 27.0 23.0 758 56 Пд 5 15 ГОДИН
02.09.19 12:00 Одесса 26.0 23.0 758 49 Пд 3 12 ГОДИН
02.09.19 09:00 Одесса 25.0 23.0 758 37 Пн 0 09 ГОДИН
Количество строк
1 2 3 4 5 6 7 8 9 10
Page 5 of 530